sensor_id;sensor_type;location;lat;lon;timestamp;temperature;humidity
3380;DHT22;1703;51.964;7.642;2023-07-20T00:01:30;19.10;99.90
3380;DHT22;1703;51.964;7.642;2023-07-20T00:03:57;19.10;99.90
3380;DHT22;1703;51.964;7.642;2023-07-20T00:06:24;19.10;99.90
3380;DHT22;1703;51.964;7.642;2023-07-20T00:08:53;19.10;99.90
3380;DHT22;1703;51.964;7.642;2023-07-20T00:11:26;19.10;99.90
3380;DHT22;1703;51.964;7.642;2023-07-20T00:13:54;19.00;99.90
3380;DHT22;1703;51.964;7.642;2023-07-20T00:16:20;18.90;99.90
3380;DHT22;1703;51.964;7.642;2023-07-20T00:18:47;18.90;99.90
3380;DHT22;1703;51.964;7.642;2023-07-20T00:21:14;18.90;99.90
3380;DHT22;1703;51.964;7.642;2023-07-20T00:23:41;18.90;99.90
3380;DHT22;1703;51.964;7.642;2023-07-20T00:26:08;18.90;99.90
3380;DHT22;1703;51.964;7.642;2023-07-20T00:28:36;18.90;99.90
3380;DHT22;1703;51.964;7.642;2023-07-20T00:31:03;18.90;99.90
3380;DHT22;1703;51.964;7.642;2023-07-20T00:33:29;18.90;99.90
3380;DHT22;1703;51.964;7.642;2023-07-20T00:35:56;18.80;99.90
3380;DHT22;1703;51.964;7.642;2023-07-20T00:38:23;18.80;99.90
3380;DHT22;1703;51.964;7.642;2023-07-20T00:40:51;18.80;99.90
3380;DHT22;1703;51.964;7.642;2023-07-20T00:43:18;18.70;99.90
3380;DHT22;1703;51.964;7.642;2023-07-20T00:45:46;18.70;99.90
3380;DHT22;1703;51.964;7.642;2023-07-20T00:48:14;18.70;99.90
3380;DHT22;1703;51.964;7.642;2023-07-20T00:50:42;18.70;99.90
3380;DHT22;1703;51.964;7.642;2023-07-20T00:53:10;18.70;99.90
3380;DHT22;1703;51.964;7.642;2023-07-20T00:55:36;18.70;99.90
3380;DHT22;1703;51.964;7.642;2023-07-20T00:58:03;18.70;99.90
3380;DHT22;1703;51.964;7.642;2023-07-20T01:00:30;18.60;99.90
3380;DHT22;1703;51.964;7.642;2023-07-20T01:02:58;18.60;99.90
3380;DHT22;1703;51.964;7.642;2023-07-20T01:05:33;18.50;99.90
3380;DHT22;1703;51.964;7.642;2023-07-20T01:08:07;18.50;99.90
3380;DHT22;1703;51.964;7.642;2023-07-20T01:10:41;18.50;99.90
3380;DHT22;1703;51.964;7.642;2023-07-20T01:13:14;18.50;99.90
3380;DHT22;1703;51.964;7.642;2023-07-20T01:15:41;18.40;99.90
3380;DHT22;1703;51.964;7.642;2023-07-20T01:18:09;18.40;99.90
3380;DHT22;1703;51.964;7.642;2023-07-20T01:20:37;18.40;99.90
3380;DHT22;1703;51.964;7.642;2023-07-20T01:23:38;18.40;99.90
3380;DHT22;1703;51.964;7.642;2023-07-20T01:26:21;18.40;99.90
3380;DHT22;1703;51.964;7.642;2023-07-20T01:29:17;18.30;99.90
3380;DHT22;1703;51.964;7.642;2023-07-20T01:31:52;18.30;99.90
3380;DHT22;1703;51.964;7.642;2023-07-20T01:34:22;18.30;99.90
3380;DHT22;1703;51.964;7.642;2023-07-20T01:36:50;18.30;99.90
3380;DHT22;1703;51.964;7.642;2023-07-20T01:39:19;18.20;99.90
3380;DHT22;1703;51.964;7.642;2023-07-20T01:41:47;18.10;99.90
3380;DHT22;1703;51.964;7.642;2023-07-20T01:44:14;18.20;99.90
3380;DHT22;1703;51.964;7.642;2023-07-20T01:46:40;18.20;99.90
3380;DHT22;1703;51.964;7.642;2023-07-20T01:49:09;18.10;99.90
3380;DHT22;1703;51.964;7.642;2023-07-20T01:51:35;18.10;99.90
3380;DHT22;1703;51.964;7.642;2023-07-20T01:54:02;18.10;99.90
3380;DHT22;1703;51.964;7.642;2023-07-20T01:56:29;18.10;99.90
3380;DHT22;1703;51.964;7.642;2023-07-20T01:58:56;18.10;99.90
3380;DHT22;1703;51.964;7.642;2023-07-20T02:01:23;18.20;99.90
3380;DHT22;1703;51.964;7.642;2023-07-20T02:03:50;18.20;99.90
3380;DHT22;1703;51.964;7.642;2023-07-20T02:06:18;18.20;99.90
3380;DHT22;1703;51.964;7.642;2023-07-20T02:08:45;18.20;99.90
3380;DHT22;1703;51.964;7.642;2023-07-20T02:11:11;18.10;99.90
3380;DHT22;1703;51.964;7.642;2023-07-20T02:13:38;18.20;99.90
3380;DHT22;1703;51.964;7.642;2023-07-20T02:16:05;18.20;99.90
3380;DHT22;1703;51.964;7.642;2023-07-20T02:18:32;18.10;99.90
3380;DHT22;1703;51.964;7.642;2023-07-20T02:21:00;18.00;99.90
3380;DHT22;1703;51.964;7.642;2023-07-20T02:23:29;17.90;99.90
3380;DHT22;1703;51.964;7.642;2023-07-20T02:25:55;17.70;99.90
3380;DHT22;1703;51.964;7.642;2023-07-20T02:28:22;17.50;99.90
3380;DHT22;1703;51.964;7.642;2023-07-20T02:30:49;17.40;99.90
3380;DHT22;1703;51.964;7.642;2023-07-20T02:33:16;17.30;99.90
3380;DHT22;1703;51.964;7.642;2023-07-20T02:35:43;17.20;99.90
3380;DHT22;1703;51.964;7.642;2023-07-20T02:38:09;17.20;99.90
3380;DHT22;1703;51.964;7.642;2023-07-20T02:40:37;17.20;99.90
3380;DHT22;1703;51.964;7.642;2023-07-20T02:43:04;17.20;99.90
3380;DHT22;1703;51.964;7.642;2023-07-20T02:45:31;17.20;99.90
3380;DHT22;1703;51.964;7.642;2023-07-20T02:47:58;17.20;99.90
3380;DHT22;1703;51.964;7.642;2023-07-20T02:50:25;17.10;99.90
3380;DHT22;1703;51.964;7.642;2023-07-20T02:52:51;17.10;99.90
3380;DHT22;1703;51.964;7.642;2023-07-20T02:55:18;17.10;99.90
3380;DHT22;1703;51.964;7.642;2023-07-20T02:57:47;17.10;99.90
3380;DHT22;1703;51.964;7.642;2023-07-20T03:00:14;17.10;99.90
3380;DHT22;1703;51.964;7.642;2023-07-20T03:02:42;17.20;99.90
3380;DHT22;1703;51.964;7.642;2023-07-20T03:05:09;17.10;99.90
3380;DHT22;1703;51.964;7.642;2023-07-20T03:07:36;17.20;99.90
3380;DHT22;1703;51.964;7.642;2023-07-20T03:10:03;17.30;99.90
3380;DHT22;1703;51.964;7.642;2023-07-20T03:12:32;17.40;99.90
3380;DHT22;1703;51.964;7.642;2023-07-20T03:15:01;17.30;99.90
3380;DHT22;1703;51.964;7.642;2023-07-20T03:17:28;17.30;99.90
3380;DHT22;1703;51.964;7.642;2023-07-20T03:19:56;17.20;99.90
3380;DHT22;1703;51.964;7.642;2023-07-20T03:22:23;17.10;99.90
3380;DHT22;1703;51.964;7.642;2023-07-20T03:24:50;17.20;99.90
3380;DHT22;1703;51.964;7.642;2023-07-20T03:27:18;17.20;99.90
3380;DHT22;1703;51.964;7.642;2023-07-20T03:29:45;17.30;99.90
3380;DHT22;1703;51.964;7.642;2023-07-20T03:32:14;17.30;99.90
3380;DHT22;1703;51.964;7.642;2023-07-20T03:34:41;17.40;99.90
3380;DHT22;1703;51.964;7.642;2023-07-20T03:37:10;17.40;99.90
3380;DHT22;1703;51.964;7.642;2023-07-20T03:39:37;17.30;99.90
3380;DHT22;1703;51.964;7.642;2023-07-20T03:42:04;17.30;99.90
3380;DHT22;1703;51.964;7.642;2023-07-20T03:44:33;17.30;99.90
3380;DHT22;1703;51.964;7.642;2023-07-20T03:46:59;17.40;99.90
3380;DHT22;1703;51.964;7.642;2023-07-20T03:49:28;17.40;99.90
3380;DHT22;1703;51.964;7.642;2023-07-20T03:51:55;17.40;99.90
3380;DHT22;1703;51.964;7.642;2023-07-20T03:54:21;17.40;99.90
3380;DHT22;1703;51.964;7.642;2023-07-20T03:56:48;17.30;99.90
3380;DHT22;1703;51.964;7.642;2023-07-20T03:59:15;17.40;99.90
3380;DHT22;1703;51.964;7.642;2023-07-20T04:01:42;17.30;99.90
3380;DHT22;1703;51.964;7.642;2023-07-20T04:04:09;17.40;99.90
3380;DHT22;1703;51.964;7.642;2023-07-20T04:06:37;17.40;99.90
3380;DHT22;1703;51.964;7.642;2023-07-20T04:09:04;17.30;99.90
3380;DHT22;1703;51.964;7.642;2023-07-20T04:11:31;17.30;99.90
3380;DHT22;1703;51.964;7.642;2023-07-20T04:13:58;17.30;99.90
3380;DHT22;1703;51.964;7.642;2023-07-20T04:16:25;17.30;99.90
3380;DHT22;1703;51.964;7.642;2023-07-20T04:18:54;17.50;99.90
3380;DHT22;1703;51.964;7.642;2023-07-20T04:21:21;17.50;99.90
3380;DHT22;1703;51.964;7.642;2023-07-20T04:23:49;17.50;99.90
3380;DHT22;1703;51.964;7.642;2023-07-20T04:26:16;17.30;99.90
3380;DHT22;1703;51.964;7.642;2023-07-20T04:28:43;17.30;99.90
3380;DHT22;1703;51.964;7.642;2023-07-20T04:31:16;17.20;99.90
3380;DHT22;1703;51.964;7.642;2023-07-20T04:33:43;17.20;99.90
3380;DHT22;1703;51.964;7.642;2023-07-20T04:36:10;17.30;99.90
3380;DHT22;1703;51.964;7.642;2023-07-20T04:38:38;17.20;99.90
3380;DHT22;1703;51.964;7.642;2023-07-20T04:41:13;17.20;99.90
3380;DHT22;1703;51.964;7.642;2023-07-20T04:43:44;17.10;99.90
3380;DHT22;1703;51.964;7.642;2023-07-20T04:46:13;17.10;99.90
3380;DHT22;1703;51.964;7.642;2023-07-20T04:48:41;17.10;99.90
3380;DHT22;1703;51.964;7.642;2023-07-20T04:51:08;17.20;99.90
3380;DHT22;1703;51.964;7.642;2023-07-20T04:53:35;17.20;99.90
3380;DHT22;1703;51.964;7.642;2023-07-20T04:56:03;17.10;99.90
3380;DHT22;1703;51.964;7.642;2023-07-20T04:58:31;17.10;99.90
3380;DHT22;1703;51.964;7.642;2023-07-20T05:00:58;17.10;99.90
3380;DHT22;1703;51.964;7.642;2023-07-20T05:03:25;17.10;99.90
3380;DHT22;1703;51.964;7.642;2023-07-20T05:05:52;17.10;99.90
3380;DHT22;1703;51.964;7.642;2023-07-20T05:08:19;17.10;99.90
3380;DHT22;1703;51.964;7.642;2023-07-20T05:10:47;17.20;99.90
3380;DHT22;1703;51.964;7.642;2023-07-20T05:13:15;17.20;99.90
3380;DHT22;1703;51.964;7.642;2023-07-20T05:15:44;17.20;99.90
3380;DHT22;1703;51.964;7.642;2023-07-20T05:18:14;17.20;99.90
3380;DHT22;1703;51.964;7.642;2023-07-20T05:20:46;17.30;99.90
3380;DHT22;1703;51.964;7.642;2023-07-20T05:23:12;17.40;99.90
3380;DHT22;1703;51.964;7.642;2023-07-20T05:25:39;17.50;99.90
3380;DHT22;1703;51.964;7.642;2023-07-20T05:28:06;17.50;99.90
3380;DHT22;1703;51.964;7.642;2023-07-20T05:30:33;17.40;99.90
3380;DHT22;1703;51.964;7.642;2023-07-20T05:33:01;17.30;99.90
3380;DHT22;1703;51.964;7.642;2023-07-20T05:35:28;17.40;99.90
3380;DHT22;1703;51.964;7.642;2023-07-20T05:37:55;17.40;99.90
3380;DHT22;1703;51.964;7.642;2023-07-20T05:40:22;17.30;99.90
3380;DHT22;1703;51.964;7.642;2023-07-20T05:42:49;17.40;99.90
3380;DHT22;1703;51.964;7.642;2023-07-20T05:45:17;17.40;99.90
3380;DHT22;1703;51.964;7.642;2023-07-20T05:47:44;17.40;99.90
3380;DHT22;1703;51.964;7.642;2023-07-20T05:50:12;17.30;99.90
3380;DHT22;1703;51.964;7.642;2023-07-20T05:52:40;17.40;99.90
3380;DHT22;1703;51.964;7.642;2023-07-20T05:55:07;17.40;99.90
3380;DHT22;1703;51.964;7.642;2023-07-20T05:57:34;17.30;99.90
3380;DHT22;1703;51.964;7.642;2023-07-20T06:00:07;17.30;99.90
3380;DHT22;1703;51.964;7.642;2023-07-20T06:02:41;17.20;99.90
3380;DHT22;1703;51.964;7.642;2023-07-20T06:05:09;17.20;99.90
3380;DHT22;1703;51.964;7.642;2023-07-20T06:07:37;17.20;99.90
3380;DHT22;1703;51.964;7.642;2023-07-20T06:10:06;17.20;99.90
3380;DHT22;1703;51.964;7.642;2023-07-20T06:12:33;17.30;99.90
3380;DHT22;1703;51.964;7.642;2023-07-20T06:15:02;17.30;99.90
3380;DHT22;1703;51.964;7.642;2023-07-20T06:17:29;17.30;99.90
3380;DHT22;1703;51.964;7.642;2023-07-20T06:19:56;17.40;99.90
3380;DHT22;1703;51.964;7.642;2023-07-20T06:22:23;17.50;99.90
3380;DHT22;1703;51.964;7.642;2023-07-20T06:24:51;17.40;99.90
3380;DHT22;1703;51.964;7.642;2023-07-20T06:27:18;17.30;99.90
3380;DHT22;1703;51.964;7.642;2023-07-20T06:29:45;17.40;99.90
3380;DHT22;1703;51.964;7.642;2023-07-20T06:32:12;17.40;99.90
3380;DHT22;1703;51.964;7.642;2023-07-20T06:34:39;17.40;99.90
3380;DHT22;1703;51.964;7.642;2023-07-20T06:37:06;17.40;99.90
3380;DHT22;1703;51.964;7.642;2023-07-20T06:39:32;17.50;99.90
3380;DHT22;1703;51.964;7.642;2023-07-20T06:42:01;17.50;99.90
3380;DHT22;1703;51.964;7.642;2023-07-20T06:44:27;17.60;99.90
3380;DHT22;1703;51.964;7.642;2023-07-20T06:46:54;17.60;99.90
3380;DHT22;1703;51.964;7.642;2023-07-20T06:49:25;17.80;99.90
3380;DHT22;1703;51.964;7.642;2023-07-20T06:51:52;17.90;99.90
3380;DHT22;1703;51.964;7.642;2023-07-20T06:54:19;17.90;99.90
3380;DHT22;1703;51.964;7.642;2023-07-20T06:56:46;18.00;99.90
3380;DHT22;1703;51.964;7.642;2023-07-20T06:59:14;18.10;99.90
3380;DHT22;1703;51.964;7.642;2023-07-20T07:01:41;18.20;99.90
3380;DHT22;1703;51.964;7.642;2023-07-20T07:04:08;18.30;99.90
3380;DHT22;1703;51.964;7.642;2023-07-20T07:06:36;18.30;99.90
3380;DHT22;1703;51.964;7.642;2023-07-20T07:09:03;18.40;99.90
3380;DHT22;1703;51.964;7.642;2023-07-20T07:11:30;18.30;99.90
3380;DHT22;1703;51.964;7.642;2023-07-20T07:13:57;18.20;99.90
3380;DHT22;1703;51.964;7.642;2023-07-20T07:16:25;18.20;99.90
3380;DHT22;1703;51.964;7.642;2023-07-20T07:18:52;18.10;99.90
3380;DHT22;1703;51.964;7.642;2023-07-20T07:21:19;18.10;99.90
3380;DHT22;1703;51.964;7.642;2023-07-20T07:23:46;18.00;99.90
3380;DHT22;1703;51.964;7.642;2023-07-20T07:26:13;17.80;99.90
3380;DHT22;1703;51.964;7.642;2023-07-20T07:28:40;17.80;99.90
3380;DHT22;1703;51.964;7.642;2023-07-20T07:31:07;17.80;99.90
3380;DHT22;1703;51.964;7.642;2023-07-20T07:33:35;17.80;99.90
3380;DHT22;1703;51.964;7.642;2023-07-20T07:36:02;17.90;99.90
3380;DHT22;1703;51.964;7.642;2023-07-20T07:38:29;17.90;99.90
3380;DHT22;1703;51.964;7.642;2023-07-20T07:40:56;17.90;99.90
3380;DHT22;1703;51.964;7.642;2023-07-20T07:43:23;18.00;99.90
3380;DHT22;1703;51.964;7.642;2023-07-20T07:45:49;18.00;99.90
3380;DHT22;1703;51.964;7.642;2023-07-20T07:48:16;18.00;99.90
3380;DHT22;1703;51.964;7.642;2023-07-20T07:50:45;18.30;99.90
3380;DHT22;1703;51.964;7.642;2023-07-20T07:53:12;18.40;99.90
3380;DHT22;1703;51.964;7.642;2023-07-20T07:55:38;18.50;99.90
3380;DHT22;1703;51.964;7.642;2023-07-20T07:58:06;18.60;99.90
3380;DHT22;1703;51.964;7.642;2023-07-20T08:00:33;18.70;99.90
3380;DHT22;1703;51.964;7.642;2023-07-20T08:03:00;18.80;99.90
3380;DHT22;1703;51.964;7.642;2023-07-20T08:05:27;19.00;99.90
3380;DHT22;1703;51.964;7.642;2023-07-20T08:08:01;19.10;99.90
3380;DHT22;1703;51.964;7.642;2023-07-20T08:10:28;19.30;99.90
3380;DHT22;1703;51.964;7.642;2023-07-20T08:12:55;19.40;99.90
3380;DHT22;1703;51.964;7.642;2023-07-20T08:15:21;19.50;99.90
3380;DHT22;1703;51.964;7.642;2023-07-20T08:17:48;19.60;99.90
3380;DHT22;1703;51.964;7.642;2023-07-20T08:20:17;19.60;99.90
3380;DHT22;1703;51.964;7.642;2023-07-20T08:22:44;19.50;99.90
3380;DHT22;1703;51.964;7.642;2023-07-20T08:25:13;19.40;99.90
3380;DHT22;1703;51.964;7.642;2023-07-20T08:27:48;19.60;99.90
3380;DHT22;1703;51.964;7.642;2023-07-20T08:30:26;19.40;99.90
3380;DHT22;1703;51.964;7.642;2023-07-20T08:32:53;19.30;99.90
3380;DHT22;1703;51.964;7.642;2023-07-20T08:35:20;19.20;99.90
3380;DHT22;1703;51.964;7.642;2023-07-20T08:37:46;19.20;99.90
3380;DHT22;1703;51.964;7.642;2023-07-20T08:40:15;19.10;99.90
3380;DHT22;1703;51.964;7.642;2023-07-20T08:42:43;19.10;99.90
3380;DHT22;1703;51.964;7.642;2023-07-20T08:45:13;19.00;99.90
3380;DHT22;1703;51.964;7.642;2023-07-20T08:47:41;19.00;99.90
3380;DHT22;1703;51.964;7.642;2023-07-20T08:50:09;19.10;99.90
3380;DHT22;1703;51.964;7.642;2023-07-20T08:52:37;19.20;99.90
3380;DHT22;1703;51.964;7.642;2023-07-20T08:55:04;19.30;99.90
3380;DHT22;1703;51.964;7.642;2023-07-20T08:57:34;19.40;99.90
3380;DHT22;1703;51.964;7.642;2023-07-20T09:00:02;19.60;99.90
3380;DHT22;1703;51.964;7.642;2023-07-20T09:02:35;19.70;99.90
3380;DHT22;1703;51.964;7.642;2023-07-20T09:05:06;19.90;99.90
3380;DHT22;1703;51.964;7.642;2023-07-20T09:07:35;20.10;99.90
3380;DHT22;1703;51.964;7.642;2023-07-20T09:10:02;20.10;99.90
3380;DHT22;1703;51.964;7.642;2023-07-20T09:12:35;20.20;99.90
3380;DHT22;1703;51.964;7.642;2023-07-20T09:15:02;20.40;99.90
3380;DHT22;1703;51.964;7.642;2023-07-20T09:17:29;20.40;99.90
3380;DHT22;1703;51.964;7.642;2023-07-20T09:19:56;20.50;99.90
3380;DHT22;1703;51.964;7.642;2023-07-20T09:22:29;20.50;99.90
3380;DHT22;1703;51.964;7.642;2023-07-20T09:24:56;20.50;99.90
3380;DHT22;1703;51.964;7.642;2023-07-20T09:27:35;20.60;99.90
3380;DHT22;1703;51.964;7.642;2023-07-20T09:30:04;20.60;99.90
3380;DHT22;1703;51.964;7.642;2023-07-20T09:32:39;20.30;99.90
3380;DHT22;1703;51.964;7.642;2023-07-20T09:35:07;20.20;99.90
3380;DHT22;1703;51.964;7.642;2023-07-20T09:37:39;20.10;99.90
3380;DHT22;1703;51.964;7.642;2023-07-20T09:40:07;20.10;99.90
3380;DHT22;1703;51.964;7.642;2023-07-20T09:42:36;20.20;99.90
3380;DHT22;1703;51.964;7.642;2023-07-20T09:45:07;20.20;99.90
3380;DHT22;1703;51.964;7.642;2023-07-20T09:47:36;20.30;99.90
3380;DHT22;1703;51.964;7.642;2023-07-20T09:50:03;20.50;99.90
3380;DHT22;1703;51.964;7.642;2023-07-20T09:52:37;20.70;99.90
3380;DHT22;1703;51.964;7.642;2023-07-20T09:55:06;20.80;99.90
3380;DHT22;1703;51.964;7.642;2023-07-20T09:57:33;20.80;99.90
3380;DHT22;1703;51.964;7.642;2023-07-20T10:00:02;20.70;99.90
3380;DHT22;1703;51.964;7.642;2023-07-20T10:02:33;20.60;99.90
3380;DHT22;1703;51.964;7.642;2023-07-20T10:05:02;20.50;99.90
3380;DHT22;1703;51.964;7.642;2023-07-20T10:07:30;20.40;99.90
3380;DHT22;1703;51.964;7.642;2023-07-20T10:09:59;20.40;99.90
3380;DHT22;1703;51.964;7.642;2023-07-20T10:12:29;20.40;99.90
3380;DHT22;1703;51.964;7.642;2023-07-20T10:15:03;20.60;99.90
3380;DHT22;1703;51.964;7.642;2023-07-20T10:17:34;20.40;99.90
3380;DHT22;1703;51.964;7.642;2023-07-20T10:20:02;20.60;99.90
3380;DHT22;1703;51.964;7.642;2023-07-20T10:22:35;20.60;99.90
3380;DHT22;1703;51.964;7.642;2023-07-20T10:25:02;20.70;99.90
3380;DHT22;1703;51.964;7.642;2023-07-20T10:27:31;20.90;99.90
3380;DHT22;1703;51.964;7.642;2023-07-20T10:29:58;21.00;99.90
3380;DHT22;1703;51.964;7.642;2023-07-20T10:32:28;21.20;99.90
3380;DHT22;1703;51.964;7.642;2023-07-20T10:34:56;21.30;99.90
3380;DHT22;1703;51.964;7.642;2023-07-20T10:37:46;21.30;99.90
3380;DHT22;1703;51.964;7.642;2023-07-20T10:40:34;21.40;99.90
3380;DHT22;1703;51.964;7.642;2023-07-20T10:43:03;21.20;99.90
3380;DHT22;1703;51.964;7.642;2023-07-20T10:45:34;21.20;99.90
3380;DHT22;1703;51.964;7.642;2023-07-20T10:48:06;21.10;99.90
3380;DHT22;1703;51.964;7.642;2023-07-20T10:50:40;21.10;99.90
3380;DHT22;1703;51.964;7.642;2023-07-20T10:53:11;21.10;99.90
3380;DHT22;1703;51.964;7.642;2023-07-20T10:55:38;21.20;99.90
3380;DHT22;1703;51.964;7.642;2023-07-20T10:58:12;21.20;99.90
3380;DHT22;1703;51.964;7.642;2023-07-20T11:00:57;21.20;99.90
3380;DHT22;1703;51.964;7.642;2023-07-20T11:03:31;21.20;99.90
3380;DHT22;1703;51.964;7.642;2023-07-20T11:05:58;21.30;99.90
3380;DHT22;1703;51.964;7.642;2023-07-20T11:08:39;21.30;99.90
3380;DHT22;1703;51.964;7.642;2023-07-20T11:11:22;21.50;99.90
3380;DHT22;1703;51.964;7.642;2023-07-20T11:13:56;21.70;99.90
3380;DHT22;1703;51.964;7.642;2023-07-20T11:16:34;21.60;99.90
3380;DHT22;1703;51.964;7.642;2023-07-20T11:19:03;21.60;99.90
3380;DHT22;1703;51.964;7.642;2023-07-20T11:21:35;21.60;99.90
3380;DHT22;1703;51.964;7.642;2023-07-20T11:24:04;21.60;99.90
3380;DHT22;1703;51.964;7.642;2023-07-20T11:26:39;21.70;99.90
3380;DHT22;1703;51.964;7.642;2023-07-20T11:29:05;21.90;99.90
3380;DHT22;1703;51.964;7.642;2023-07-20T11:31:35;21.90;99.90
3380;DHT22;1703;51.964;7.642;2023-07-20T11:34:04;21.80;99.90
3380;DHT22;1703;51.964;7.642;2023-07-20T11:36:30;21.80;99.90
3380;DHT22;1703;51.964;7.642;2023-07-20T11:38:58;21.80;99.90
3380;DHT22;1703;51.964;7.642;2023-07-20T11:41:25;21.90;99.90
3380;DHT22;1703;51.964;7.642;2023-07-20T11:43:52;21.90;99.90
3380;DHT22;1703;51.964;7.642;2023-07-20T11:46:20;21.90;99.90
3380;DHT22;1703;51.964;7.642;2023-07-20T11:48:47;21.70;99.90
3380;DHT22;1703;51.964;7.642;2023-07-20T11:51:16;21.80;99.90
3380;DHT22;1703;51.964;7.642;2023-07-20T11:53:44;21.90;99.90
3380;DHT22;1703;51.964;7.642;2023-07-20T11:56:11;22.00;99.90
3380;DHT22;1703;51.964;7.642;2023-07-20T11:58:42;22.00;99.90
3380;DHT22;1703;51.964;7.642;2023-07-20T12:01:09;22.00;99.90
3380;DHT22;1703;51.964;7.642;2023-07-20T12:03:36;22.00;99.90
3380;DHT22;1703;51.964;7.642;2023-07-20T12:06:07;22.20;99.90
3380;DHT22;1703;51.964;7.642;2023-07-20T12:08:38;22.50;99.90
3380;DHT22;1703;51.964;7.642;2023-07-20T12:11:05;22.60;99.90
3380;DHT22;1703;51.964;7.642;2023-07-20T12:13:36;22.60;99.90
3380;DHT22;1703;51.964;7.642;2023-07-20T12:16:09;22.50;99.90
3380;DHT22;1703;51.964;7.642;2023-07-20T12:18:37;22.40;99.90
3380;DHT22;1703;51.964;7.642;2023-07-20T12:21:05;22.20;99.90
3380;DHT22;1703;51.964;7.642;2023-07-20T12:23:37;22.30;99.90
3380;DHT22;1703;51.964;7.642;2023-07-20T12:26:06;22.30;99.90
3380;DHT22;1703;51.964;7.642;2023-07-20T12:28:38;22.40;99.90
3380;DHT22;1703;51.964;7.642;2023-07-20T12:31:05;22.40;99.90
3380;DHT22;1703;51.964;7.642;2023-07-20T12:33:32;22.50;99.90
3380;DHT22;1703;51.964;7.642;2023-07-20T12:36:00;22.50;99.90
3380;DHT22;1703;51.964;7.642;2023-07-20T12:38:27;22.70;99.90
3380;DHT22;1703;51.964;7.642;2023-07-20T12:40:55;23.10;99.90
3380;DHT22;1703;51.964;7.642;2023-07-20T12:43:22;23.20;99.90
3380;DHT22;1703;51.964;7.642;2023-07-20T12:45:49;23.10;99.90
3380;DHT22;1703;51.964;7.642;2023-07-20T12:48:16;22.70;99.90
3380;DHT22;1703;51.964;7.642;2023-07-20T12:50:42;22.70;99.90
3380;DHT22;1703;51.964;7.642;2023-07-20T12:53:09;22.80;99.90
3380;DHT22;1703;51.964;7.642;2023-07-20T12:55:37;22.80;99.90
3380;DHT22;1703;51.964;7.642;2023-07-20T12:58:07;22.70;99.90
3380;DHT22;1703;51.964;7.642;2023-07-20T13:00:34;22.80;99.90
3380;DHT22;1703;51.964;7.642;2023-07-20T13:03:00;22.90;99.90
3380;DHT22;1703;51.964;7.642;2023-07-20T13:05:30;23.10;99.90
3380;DHT22;1703;51.964;7.642;2023-07-20T13:07:58;23.10;99.90
3380;DHT22;1703;51.964;7.642;2023-07-20T13:10:25;23.40;99.90
3380;DHT22;1703;51.964;7.642;2023-07-20T13:12:52;23.30;99.90
3380;DHT22;1703;51.964;7.642;2023-07-20T13:15:21;23.50;99.90
3380;DHT22;1703;51.964;7.642;2023-07-20T13:17:47;23.50;99.90
3380;DHT22;1703;51.964;7.642;2023-07-20T13:20:14;23.40;99.90
3380;DHT22;1703;51.964;7.642;2023-07-20T13:22:41;23.50;99.90
3380;DHT22;1703;51.964;7.642;2023-07-20T13:25:08;23.30;99.90
3380;DHT22;1703;51.964;7.642;2023-07-20T13:27:36;23.50;99.90
3380;DHT22;1703;51.964;7.642;2023-07-20T13:30:04;23.90;99.90
3380;DHT22;1703;51.964;7.642;2023-07-20T13:32:33;24.60;99.90
3380;DHT22;1703;51.964;7.642;2023-07-20T13:35:00;25.70;99.90
3380;DHT22;1703;51.964;7.642;2023-07-20T13:37:27;26.10;99.90
3380;DHT22;1703;51.964;7.642;2023-07-20T13:39:54;27.20;99.90
3380;DHT22;1703;51.964;7.642;2023-07-20T13:42:20;27.80;98.90
3380;DHT22;1703;51.964;7.642;2023-07-20T13:44:48;28.80;98.90
3380;DHT22;1703;51.964;7.642;2023-07-20T13:47:14;28.90;95.30
3380;DHT22;1703;51.964;7.642;2023-07-20T13:49:43;28.70;95.30
3380;DHT22;1703;51.964;7.642;2023-07-20T13:52:10;28.70;95.80
3380;DHT22;1703;51.964;7.642;2023-07-20T13:54:37;29.50;94.40
3380;DHT22;1703;51.964;7.642;2023-07-20T13:57:04;30.00;91.80
3380;DHT22;1703;51.964;7.642;2023-07-20T13:59:31;30.00;94.10
3380;DHT22;1703;51.964;7.642;2023-07-20T14:01:58;29.40;95.60
3380;DHT22;1703;51.964;7.642;2023-07-20T14:04:25;28.60;96.50
3380;DHT22;1703;51.964;7.642;2023-07-20T14:06:53;27.30;97.40
3380;DHT22;1703;51.964;7.642;2023-07-20T14:09:20;26.60;99.50
3380;DHT22;1703;51.964;7.642;2023-07-20T14:11:47;26.00;99.90
3380;DHT22;1703;51.964;7.642;2023-07-20T14:14:13;25.60;99.90
3380;DHT22;1703;51.964;7.642;2023-07-20T14:16:40;25.40;99.90
3380;DHT22;1703;51.964;7.642;2023-07-20T14:19:07;25.20;99.90
3380;DHT22;1703;51.964;7.642;2023-07-20T14:21:34;24.80;99.90
3380;DHT22;1703;51.964;7.642;2023-07-20T14:24:02;24.60;99.90
3380;DHT22;1703;51.964;7.642;2023-07-20T14:26:29;24.30;99.90
3380;DHT22;1703;51.964;7.642;2023-07-20T14:28:56;24.20;99.90
3380;DHT22;1703;51.964;7.642;2023-07-20T14:31:23;24.00;99.90
3380;DHT22;1703;51.964;7.642;2023-07-20T14:33:50;23.80;99.90
3380;DHT22;1703;51.964;7.642;2023-07-20T14:36:16;23.90;99.90
3380;DHT22;1703;51.964;7.642;2023-07-20T14:38:43;24.00;99.90
3380;DHT22;1703;51.964;7.642;2023-07-20T14:41:11;24.00;99.90
3380;DHT22;1703;51.964;7.642;2023-07-20T14:43:38;24.00;99.90
3380;DHT22;1703;51.964;7.642;2023-07-20T14:46:05;24.20;99.90
3380;DHT22;1703;51.964;7.642;2023-07-20T14:48:32;24.50;99.90
3380;DHT22;1703;51.964;7.642;2023-07-20T14:50:59;24.60;99.90
3380;DHT22;1703;51.964;7.642;2023-07-20T14:53:26;24.60;99.90
3380;DHT22;1703;51.964;7.642;2023-07-20T14:55:58;25.00;99.90
3380;DHT22;1703;51.964;7.642;2023-07-20T14:58:27;25.40;99.90
3380;DHT22;1703;51.964;7.642;2023-07-20T15:00:54;25.20;99.90
3380;DHT22;1703;51.964;7.642;2023-07-20T15:03:21;25.00;99.90
3380;DHT22;1703;51.964;7.642;2023-07-20T15:05:48;24.70;99.90
3380;DHT22;1703;51.964;7.642;2023-07-20T15:08:16;24.60;99.90
3380;DHT22;1703;51.964;7.642;2023-07-20T15:10:44;24.50;99.90
3380;DHT22;1703;51.964;7.642;2023-07-20T15:13:12;24.30;99.90
3380;DHT22;1703;51.964;7.642;2023-07-20T15:15:40;24.10;99.90
3380;DHT22;1703;51.964;7.642;2023-07-20T15:18:08;24.20;99.90
3380;DHT22;1703;51.964;7.642;2023-07-20T15:20:35;24.20;99.90
3380;DHT22;1703;51.964;7.642;2023-07-20T15:23:02;24.10;99.90
3380;DHT22;1703;51.964;7.642;2023-07-20T15:25:29;24.00;99.90
3380;DHT22;1703;51.964;7.642;2023-07-20T15:27:55;24.00;99.90
3380;DHT22;1703;51.964;7.642;2023-07-20T15:30:22;24.10;99.90
3380;DHT22;1703;51.964;7.642;2023-07-20T15:32:50;24.00;99.90
3380;DHT22;1703;51.964;7.642;2023-07-20T15:35:17;24.10;99.90
3380;DHT22;1703;51.964;7.642;2023-07-20T15:37:44;24.10;99.90
3380;DHT22;1703;51.964;7.642;2023-07-20T15:40:12;24.00;99.90
3380;DHT22;1703;51.964;7.642;2023-07-20T15:42:39;23.90;99.90
3380;DHT22;1703;51.964;7.642;2023-07-20T15:45:07;23.90;99.90
3380;DHT22;1703;51.964;7.642;2023-07-20T15:47:34;23.90;99.90
3380;DHT22;1703;51.964;7.642;2023-07-20T15:50:02;24.00;99.90
3380;DHT22;1703;51.964;7.642;2023-07-20T15:52:30;23.80;99.90
3380;DHT22;1703;51.964;7.642;2023-07-20T15:54:57;23.60;99.90
3380;DHT22;1703;51.964;7.642;2023-07-20T15:57:24;23.50;99.90
3380;DHT22;1703;51.964;7.642;2023-07-20T15:59:51;23.50;99.90
3380;DHT22;1703;51.964;7.642;2023-07-20T16:02:17;23.50;99.90
3380;DHT22;1703;51.964;7.642;2023-07-20T16:04:44;23.50;99.90
3380;DHT22;1703;51.964;7.642;2023-07-20T16:07:13;23.50;99.90
3380;DHT22;1703;51.964;7.642;2023-07-20T16:09:40;23.70;99.90